createdAt,value
2022-12-03T00:01:21.349Z,20.00
2022-12-03T00:03:49.021Z,20.88
2022-12-03T00:06:17.630Z,21.50
2022-12-03T00:08:45.178Z,20.45
2022-12-03T00:11:12.752Z,20.40
2022-12-03T00:13:40.311Z,23.58
2022-12-03T00:16:07.998Z,20.65
2022-12-03T00:18:36.048Z,22.40
2022-12-03T00:21:03.627Z,21.45
2022-12-03T00:23:31.263Z,23.13
2022-12-03T00:25:58.855Z,20.67
2022-12-03T00:28:26.416Z,24.40
2022-12-03T00:30:54.283Z,20.65
2022-12-03T00:33:23.111Z,20.63
2022-12-03T00:35:50.719Z,23.23
2022-12-03T00:38:18.245Z,23.95
2022-12-03T00:40:45.799Z,21.90
2022-12-03T00:43:13.378Z,20.60
2022-12-03T00:45:41.120Z,21.38
2022-12-03T00:48:08.697Z,25.40
2022-12-03T00:50:36.260Z,21.35
2022-12-03T00:53:03.851Z,21.13
2022-12-03T00:55:31.482Z,22.13
2022-12-03T00:57:59.396Z,22.00
2022-12-03T01:00:26.963Z,21.35
2022-12-03T01:02:54.691Z,23.15
2022-12-03T01:05:22.576Z,22.48
2022-12-03T01:07:50.190Z,23.35
2022-12-03T01:10:17.834Z,21.83
2022-12-03T01:12:45.487Z,20.85
2022-12-03T01:15:13.051Z,23.88
2022-12-03T01:17:41.947Z,22.27
2022-12-03T01:20:10.339Z,22.92
2022-12-03T01:22:37.955Z,23.00
2022-12-03T01:25:05.990Z,22.98
2022-12-03T01:27:33.534Z,27.48
2022-12-03T01:30:01.063Z,23.52
2022-12-03T01:32:28.632Z,23.70
2022-12-03T01:34:56.860Z,22.33
2022-12-03T01:37:26.102Z,22.05
2022-12-03T01:39:53.727Z,25.90
2022-12-03T01:42:33.926Z,23.58
2022-12-03T01:45:01.799Z,25.70
2022-12-03T01:47:34.714Z,21.60
2022-12-03T01:50:15.756Z,26.95
2022-12-03T01:52:43.400Z,25.95
2022-12-03T01:55:19.741Z,25.38
2022-12-03T01:57:53.079Z,21.10
2022-12-03T02:00:23.499Z,24.48
2022-12-03T02:03:02.049Z,25.05
2022-12-03T02:05:33.299Z,25.27
2022-12-03T02:08:01.306Z,23.40
2022-12-03T02:10:32.586Z,24.33
2022-12-03T02:13:05.385Z,22.88
2022-12-03T02:15:33.205Z,24.73
2022-12-03T02:18:00.909Z,26.27
2022-12-03T02:20:28.560Z,23.60
2022-12-03T02:23:08.424Z,24.33
2022-12-03T02:25:36.759Z,24.58
2022-12-03T02:28:05.885Z,26.13
2022-12-03T02:30:33.580Z,22.35
2022-12-03T02:33:02.050Z,26.08
2022-12-03T02:35:35.196Z,23.27
2022-12-03T02:38:21.774Z,23.98
2022-12-03T02:40:52.503Z,26.27
2022-12-03T02:43:21.140Z,27.20
2022-12-03T02:45:52.133Z,24.58
2022-12-03T02:48:39.262Z,27.60
2022-12-03T02:51:09.528Z,25.70
2022-12-03T02:53:42.383Z,23.08
2022-12-03T02:56:15.408Z,22.08
2022-12-03T02:58:44.972Z,25.65
2022-12-03T03:01:12.619Z,26.73
2022-12-03T03:03:40.510Z,21.38
2022-12-03T03:06:08.993Z,23.33
2022-12-03T03:08:38.260Z,24.15
2022-12-03T03:11:06.065Z,26.45
2022-12-03T03:13:34.162Z,26.10
2022-12-03T03:16:03.961Z,23.45
2022-12-03T03:18:32.731Z,23.48
2022-12-03T03:21:00.553Z,26.50
2022-12-03T03:23:28.137Z,28.33
2022-12-03T03:26:05.609Z,25.63
2022-12-03T03:28:36.115Z,25.63
2022-12-03T03:31:06.366Z,25.90
2022-12-03T03:33:34.110Z,25.35
2022-12-03T03:36:01.931Z,22.42
2022-12-03T03:38:30.689Z,25.50
2022-12-03T03:40:59.322Z,27.50
2022-12-03T03:43:26.928Z,26.05
2022-12-03T03:45:55.012Z,24.95
2022-12-03T03:48:23.271Z,21.42
2022-12-03T03:50:51.660Z,25.25
2022-12-03T03:53:20.265Z,26.02
2022-12-03T03:55:47.847Z,23.70
2022-12-03T03:58:17.210Z,23.33
2022-12-03T04:00:47.992Z,24.98
2022-12-03T04:03:15.651Z,26.45
2022-12-03T04:05:43.205Z,25.77
2022-12-03T04:08:10.853Z,27.17
2022-12-03T04:10:56.827Z,31.13
2022-12-03T04:13:24.353Z,21.65
2022-12-03T04:15:51.963Z,25.42
2022-12-03T04:18:37.967Z,28.65
2022-12-03T04:21:24.093Z,27.20
2022-12-03T04:26:37.711Z,25.70
2022-12-03T04:29:05.254Z,28.00
2022-12-03T04:31:51.239Z,29.33
2022-12-03T04:34:37.742Z,27.35
2022-12-03T04:37:05.637Z,27.80
2022-12-03T04:39:33.374Z,26.23
2022-12-03T04:42:00.928Z,27.83
2022-12-03T04:44:36.279Z,29.65
2022-12-03T04:47:08.309Z,28.60
2022-12-03T04:49:37.869Z,26.67
2022-12-03T04:52:05.996Z,29.63
2022-12-03T04:54:33.948Z,29.30
2022-12-03T04:57:01.623Z,29.98
2022-12-03T04:59:29.606Z,30.15
2022-12-03T05:01:59.079Z,31.90
2022-12-03T05:04:26.874Z,31.48
2022-12-03T05:06:54.476Z,26.73
2022-12-03T05:09:22.063Z,30.00
2022-12-03T05:11:49.669Z,29.40
2022-12-03T05:14:17.391Z,29.92
2022-12-03T05:16:45.033Z,31.25
2022-12-03T05:19:12.666Z,29.92
2022-12-03T05:21:40.212Z,28.63
2022-12-03T05:24:07.914Z,30.13
2022-12-03T05:26:35.550Z,31.63
2022-12-03T05:29:03.099Z,27.83
2022-12-03T05:31:30.706Z,27.88
2022-12-03T05:33:58.379Z,29.23
2022-12-03T05:36:26.132Z,32.00
2022-12-03T05:38:53.748Z,31.88
2022-12-03T05:41:39.590Z,31.60
2022-12-03T05:44:07.175Z,26.77
2022-12-03T05:46:34.788Z,30.55
2022-12-03T05:49:02.372Z,35.05
2022-12-03T05:51:30.266Z,31.05
2022-12-03T05:53:58.299Z,31.65
2022-12-03T05:56:25.918Z,26.85
2022-12-03T05:58:53.482Z,31.13
2022-12-03T06:01:22.157Z,32.58
2022-12-03T06:03:49.806Z,32.40
2022-12-03T06:06:17.440Z,32.42
2022-12-03T06:08:45.031Z,34.85
2022-12-03T06:11:12.626Z,30.77
2022-12-03T06:13:40.193Z,31.80
2022-12-03T06:16:07.868Z,28.00
2022-12-03T06:18:35.507Z,29.83
2022-12-03T06:21:04.714Z,30.45
2022-12-03T06:23:32.242Z,33.15
2022-12-03T06:25:59.844Z,31.90
2022-12-03T06:28:27.403Z,32.03
2022-12-03T06:30:54.992Z,30.88
2022-12-03T06:33:22.773Z,29.13
2022-12-03T06:35:50.411Z,30.08
2022-12-03T06:38:18.056Z,31.33
2022-12-03T06:40:45.641Z,29.13
2022-12-03T06:43:13.244Z,32.08
2022-12-03T06:45:46.158Z,26.00
2022-12-03T06:48:17.486Z,26.25
2022-12-03T06:50:45.095Z,28.33
2022-12-03T06:53:12.816Z,30.83
2022-12-03T06:55:40.377Z,29.02
2022-12-03T06:58:08.095Z,28.92
2022-12-03T07:00:35.652Z,28.08
2022-12-03T07:03:03.261Z,30.90
2022-12-03T07:05:30.889Z,29.02
2022-12-03T07:07:58.596Z,27.67
2022-12-03T07:10:26.294Z,29.85
2022-12-03T07:12:53.887Z,28.58
2022-12-03T07:15:21.536Z,28.85
2022-12-03T07:17:49.192Z,26.77
2022-12-03T07:20:16.893Z,27.60
2022-12-03T07:22:44.457Z,28.25
2022-12-03T07:25:14.838Z,29.58
2022-12-03T07:27:44.344Z,28.92
2022-12-03T07:30:14.761Z,27.73
2022-12-03T07:32:42.554Z,29.42
2022-12-03T07:35:10.584Z,29.95
2022-12-03T07:37:38.480Z,27.58
2022-12-03T07:40:06.814Z,29.42
2022-12-03T07:42:34.407Z,30.52
2022-12-03T07:45:01.965Z,31.73
2022-12-03T07:47:29.616Z,29.90
2022-12-03T07:49:57.180Z,29.77
2022-12-03T07:52:24.763Z,30.08
2022-12-03T07:54:52.755Z,27.35
2022-12-03T07:57:22.368Z,28.50
2022-12-03T07:59:49.940Z,29.58
2022-12-03T08:02:21.343Z,31.38
2022-12-03T08:04:49.557Z,30.42
2022-12-03T08:07:17.239Z,30.15
2022-12-03T08:09:44.988Z,34.25
2022-12-03T08:12:18.278Z,31.20
2022-12-03T08:14:45.845Z,33.15
2022-12-03T08:17:14.084Z,36.50
2022-12-03T08:19:47.789Z,36.45
2022-12-03T08:22:16.644Z,37.83
2022-12-03T08:24:44.373Z,33.22
2022-12-03T08:27:19.890Z,37.33
2022-12-03T08:29:47.666Z,37.67
2022-12-03T08:32:15.275Z,37.92
2022-12-03T08:34:44.163Z,35.85
2022-12-03T08:37:19.481Z,35.83
2022-12-03T08:39:49.164Z,37.42
2022-12-03T08:42:42.439Z,36.40
2022-12-03T08:45:21.957Z,35.40
2022-12-03T08:47:49.553Z,39.63
2022-12-03T08:50:28.350Z,40.03
2022-12-03T08:53:20.487Z,39.08
2022-12-03T08:55:55.652Z,37.20
2022-12-03T08:58:25.556Z,39.35
2022-12-03T09:00:58.982Z,40.95
2022-12-03T09:03:31.216Z,35.67
2022-12-03T09:05:58.795Z,39.08
2022-12-03T09:08:26.371Z,42.80
2022-12-03T09:10:53.922Z,39.55
2022-12-03T09:13:21.593Z,40.13
2022-12-03T09:15:49.321Z,43.15
2022-12-03T09:18:16.861Z,41.97
2022-12-03T09:20:44.547Z,44.92
2022-12-03T09:23:12.165Z,40.92
2022-12-03T09:25:39.796Z,41.63
2022-12-03T09:28:07.451Z,41.40
2022-12-03T09:30:35.488Z,39.97
2022-12-03T09:33:03.077Z,41.80
2022-12-03T09:35:30.644Z,37.83
2022-12-03T09:37:58.205Z,44.95
2022-12-03T09:40:25.830Z,40.85
2022-12-03T09:42:53.537Z,42.60
2022-12-03T09:45:21.257Z,45.00
2022-12-03T09:47:50.222Z,46.13
2022-12-03T09:50:22.169Z,46.15
2022-12-03T09:52:51.055Z,46.78
2022-12-03T09:55:23.830Z,42.03
2022-12-03T09:57:52.893Z,58.80
2022-12-03T10:00:23.875Z,45.63
2022-12-03T10:02:54.612Z,46.20
2022-12-03T10:05:22.876Z,48.00
2022-12-03T10:07:51.828Z,44.63
2022-12-03T10:10:22.009Z,47.83
2022-12-03T10:12:53.145Z,42.65
2022-12-03T10:15:23.230Z,48.00
2022-12-03T10:17:54.504Z,46.05
2022-12-03T10:20:24.026Z,46.85
2022-12-03T10:22:53.067Z,44.50
2022-12-03T10:25:22.429Z,40.47
2022-12-03T10:28:01.295Z,37.08
2022-12-03T10:30:29.576Z,37.10
2022-12-03T10:32:58.663Z,38.42
2022-12-03T10:35:37.817Z,34.42
2022-12-03T10:38:07.579Z,33.35
2022-12-03T10:40:39.241Z,39.00
2022-12-03T10:43:17.820Z,37.50
2022-12-03T10:46:10.195Z,33.70
2022-12-03T10:48:38.289Z,33.25
2022-12-03T10:51:11.897Z,36.45
2022-12-03T10:53:40.779Z,35.60
2022-12-03T10:56:11.967Z,32.95
2022-12-03T10:58:40.692Z,31.00
2022-12-03T11:01:28.601Z,29.83
2022-12-03T11:04:02.102Z,31.38
2022-12-03T11:06:34.849Z,29.90
2022-12-03T11:09:08.814Z,33.28
2022-12-03T11:11:36.962Z,29.73
2022-12-03T11:14:05.317Z,29.75
2022-12-03T11:16:42.064Z,29.27
2022-12-03T11:19:17.828Z,29.73
2022-12-03T11:22:07.197Z,30.83
2022-12-03T11:24:37.075Z,25.27
2022-12-03T11:27:04.620Z,27.90
2022-12-03T11:29:55.124Z,30.00
2022-12-03T11:32:44.562Z,26.20
2022-12-03T11:35:23.989Z,27.88
2022-12-03T11:37:51.727Z,27.10
2022-12-03T11:40:19.397Z,27.13
2022-12-03T11:42:48.326Z,27.35
2022-12-03T11:45:34.572Z,28.42
2022-12-03T11:50:42.972Z,28.48
2022-12-03T11:53:25.877Z,29.33
2022-12-03T11:56:10.554Z,28.30
2022-12-03T11:58:40.233Z,28.02
2022-12-03T12:01:08.993Z,29.77
2022-12-03T12:03:48.447Z,28.98
2022-12-03T12:06:22.502Z,27.35
2022-12-03T12:08:51.845Z,27.40
2022-12-03T12:11:29.255Z,25.75
2022-12-03T12:14:04.101Z,26.98
2022-12-03T12:16:42.671Z,27.85
2022-12-03T12:19:30.269Z,29.90
2022-12-03T12:22:19.237Z,28.40
2022-12-03T12:25:09.457Z,28.67
2022-12-03T12:27:45.033Z,28.98
2022-12-03T12:30:18.359Z,29.80
2022-12-03T12:32:47.795Z,27.33
2022-12-03T12:35:25.406Z,28.95
2022-12-03T12:38:07.209Z,29.27
2022-12-03T12:40:43.107Z,29.58
2022-12-03T12:43:14.405Z,34.05
2022-12-03T12:45:44.443Z,30.85
2022-12-03T12:48:14.754Z,33.40
2022-12-03T12:50:44.590Z,24.30
2022-12-03T12:53:32.501Z,31.15
2022-12-03T12:56:30.231Z,29.88
2022-12-03T12:59:18.542Z,29.30
2022-12-03T13:01:49.902Z,29.48
2022-12-03T13:04:20.202Z,29.35
2022-12-03T13:06:53.228Z,27.80
2022-12-03T13:09:23.975Z,28.80
2022-12-03T13:11:54.722Z,29.77
2022-12-03T13:14:24.432Z,27.08
2022-12-03T13:16:53.671Z,29.80
2022-12-03T13:19:27.761Z,30.55
2022-12-03T13:22:16.835Z,30.98
2022-12-03T13:24:47.705Z,32.88
2022-12-03T13:27:18.065Z,31.80
2022-12-03T13:30:02.046Z,35.40
2022-12-03T13:32:36.775Z,34.95
2022-12-03T13:35:12.446Z,32.72
2022-12-03T13:37:40.021Z,34.73
2022-12-03T13:40:31.282Z,34.13
2022-12-03T13:42:59.458Z,35.20
2022-12-03T13:45:33.672Z,29.45
2022-12-03T13:48:03.712Z,34.22
2022-12-03T13:50:38.560Z,28.27
2022-12-03T13:53:22.210Z,33.90
2022-12-03T13:55:53.432Z,32.13
2022-12-03T13:58:21.055Z,34.45
2022-12-03T14:00:49.098Z,30.73
2022-12-03T14:03:17.543Z,35.17
2022-12-03T14:05:45.089Z,37.45
2022-12-03T14:08:12.734Z,33.20
2022-12-03T14:10:40.389Z,30.67
2022-12-03T14:13:08.505Z,36.72
2022-12-03T14:15:36.165Z,34.50
2022-12-03T14:18:03.730Z,35.25
2022-12-03T14:20:31.288Z,34.40
2022-12-03T14:22:59.627Z,36.50
2022-12-03T14:25:27.550Z,38.40
2022-12-03T14:27:55.135Z,29.38
2022-12-03T14:30:22.708Z,33.90
2022-12-03T14:32:50.241Z,34.47
2022-12-03T14:35:17.829Z,34.38
2022-12-03T14:37:45.926Z,36.88
2022-12-03T14:40:19.601Z,31.88
2022-12-03T14:42:48.879Z,35.90
2022-12-03T14:45:16.450Z,38.40
2022-12-03T14:47:44.005Z,35.03
2022-12-03T14:50:14.313Z,35.33
2022-12-03T14:52:43.259Z,40.17
2022-12-03T14:55:10.917Z,31.42
2022-12-03T14:57:38.714Z,32.83
2022-12-03T15:00:08.058Z,35.00
2022-12-03T15:02:35.754Z,35.45
2022-12-03T15:05:03.728Z,35.35
2022-12-03T15:07:32.045Z,33.92
2022-12-03T15:09:59.813Z,36.78
2022-12-03T15:12:27.378Z,35.42
2022-12-03T15:14:54.991Z,35.63
2022-12-03T15:17:31.064Z,36.10
2022-12-03T15:19:59.547Z,35.17
2022-12-03T15:22:27.154Z,39.10
2022-12-03T15:24:54.798Z,40.83
2022-12-03T15:27:22.390Z,43.00
2022-12-03T15:29:49.928Z,37.80
2022-12-03T15:32:17.520Z,35.22
2022-12-03T15:34:45.110Z,38.38
2022-12-03T15:37:12.715Z,35.00
2022-12-03T15:39:45.103Z,34.55
2022-12-03T15:42:16.011Z,36.53
2022-12-03T15:44:43.564Z,34.97
2022-12-03T15:47:11.141Z,39.83
2022-12-03T15:49:38.732Z,37.45
2022-12-03T15:52:07.804Z,38.47
2022-12-03T15:54:35.401Z,38.65
2022-12-03T15:57:02.978Z,42.00
2022-12-03T15:59:30.607Z,37.72
2022-12-03T16:01:58.240Z,41.35
2022-12-03T16:04:25.901Z,40.00
2022-12-03T16:06:53.676Z,42.72
2022-12-03T16:09:26.767Z,38.25
2022-12-03T16:11:55.068Z,42.67
2022-12-03T16:14:22.663Z,39.55
2022-12-03T16:16:50.267Z,37.42
2022-12-03T16:19:17.835Z,37.20
2022-12-03T16:21:45.466Z,41.10
2022-12-03T16:24:13.091Z,44.17
2022-12-03T16:26:40.674Z,45.47
2022-12-03T16:29:08.294Z,45.08
2022-12-03T16:31:35.978Z,41.38
2022-12-03T16:34:03.579Z,40.40
2022-12-03T16:36:31.106Z,37.35
2022-12-03T16:38:58.707Z,39.83
2022-12-03T16:41:26.402Z,40.47
2022-12-03T16:43:54.050Z,39.35
2022-12-03T16:46:25.677Z,37.42
2022-12-03T16:49:00.124Z,40.30
2022-12-03T16:51:28.360Z,38.53
2022-12-03T16:53:55.919Z,37.97
2022-12-03T16:56:23.573Z,36.95
2022-12-03T16:58:51.246Z,38.03
2022-12-03T17:01:18.932Z,43.95
2022-12-03T17:03:46.635Z,43.33
2022-12-03T17:06:14.264Z,42.42
2022-12-03T17:08:47.290Z,40.60
2022-12-03T17:11:16.995Z,38.50
2022-12-03T17:13:44.608Z,40.80
2022-12-03T17:16:12.203Z,40.35
2022-12-03T17:18:39.877Z,42.15
2022-12-03T17:21:07.546Z,39.05
2022-12-03T17:23:35.150Z,40.13
2022-12-03T17:26:02.722Z,41.72
2022-12-03T17:28:30.389Z,41.67
2022-12-03T17:30:58.035Z,42.28
2022-12-03T17:33:26.009Z,40.53
2022-12-03T17:35:53.552Z,38.40
2022-12-03T17:38:21.097Z,38.55
2022-12-03T17:40:48.707Z,38.35
2022-12-03T17:43:16.318Z,39.45
2022-12-03T17:45:44.297Z,38.70
2022-12-03T17:48:11.900Z,38.53
2022-12-03T17:50:39.745Z,43.20
2022-12-03T17:53:10.282Z,39.70
2022-12-03T17:55:44.539Z,43.35
2022-12-03T17:58:13.034Z,42.05
2022-12-03T18:00:41.153Z,41.75
2022-12-03T18:03:08.838Z,41.35
2022-12-03T18:05:36.415Z,36.85
2022-12-03T18:08:04.395Z,44.75
2022-12-03T18:10:32.915Z,44.78
2022-12-03T18:13:02.103Z,42.70
2022-12-03T18:15:30.699Z,45.40
2022-12-03T18:17:58.360Z,45.72
2022-12-03T18:20:25.963Z,45.78
2022-12-03T18:22:53.570Z,51.33
2022-12-03T18:25:21.179Z,48.55
2022-12-03T18:27:48.862Z,47.72
2022-12-03T18:30:16.482Z,50.35
2022-12-03T18:32:44.401Z,48.58
2022-12-03T18:35:11.976Z,48.47
2022-12-03T18:37:39.665Z,53.15
2022-12-03T18:40:13.199Z,50.92
2022-12-03T18:42:41.070Z,47.63
2022-12-03T18:45:11.613Z,48.25
2022-12-03T18:47:39.234Z,51.35
2022-12-03T18:50:07.710Z,53.17
2022-12-03T18:52:35.270Z,49.60
2022-12-03T18:55:05.904Z,51.67
2022-12-03T18:57:34.132Z,52.95
2022-12-03T19:00:01.712Z,57.72
2022-12-03T19:03:01.369Z,56.38
2022-12-03T19:05:17.284Z,50.60
2022-12-03T19:07:45.041Z,55.25
2022-12-03T19:10:12.903Z,58.25
2022-12-03T19:12:40.611Z,53.58
2022-12-03T19:15:08.662Z,54.90
2022-12-03T19:17:39.308Z,51.67
2022-12-03T19:20:11.818Z,54.92
2022-12-03T19:22:39.370Z,53.97
2022-12-03T19:25:07.091Z,50.97
2022-12-03T19:27:34.714Z,56.63
2022-12-03T19:30:02.275Z,53.28
2022-12-03T19:32:29.923Z,57.83
2022-12-03T19:34:57.471Z,54.97
2022-12-03T19:37:25.088Z,53.83
2022-12-03T19:39:55.590Z,57.72
2022-12-03T19:42:23.496Z,51.25
2022-12-03T19:44:52.336Z,53.65
2022-12-03T19:47:20.024Z,55.22
2022-12-03T19:49:47.606Z,56.92
2022-12-03T19:52:15.179Z,51.13
2022-12-03T19:54:42.791Z,53.58
2022-12-03T19:57:10.460Z,48.25
2022-12-03T19:59:38.213Z,52.13
2022-12-03T20:02:06.247Z,51.28
2022-12-03T20:04:33.938Z,52.28
2022-12-03T20:07:01.511Z,49.90
2022-12-03T20:09:29.136Z,44.80
2022-12-03T20:11:56.748Z,52.60
2022-12-03T20:14:24.381Z,56.60
2022-12-03T20:16:52.058Z,54.92
2022-12-03T20:19:19.659Z,54.50
2022-12-03T20:21:47.296Z,55.30
2022-12-03T20:24:17.060Z,55.05
2022-12-03T20:26:44.825Z,56.22
2022-12-03T20:29:12.792Z,54.03
2022-12-03T20:31:40.545Z,51.55
2022-12-03T20:34:08.220Z,54.83
2022-12-03T20:36:35.796Z,59.60
2022-12-03T20:39:06.804Z,60.38
2022-12-03T20:41:38.028Z,61.40
2022-12-03T20:44:07.577Z,60.33
2022-12-03T20:46:36.212Z,55.08
2022-12-03T20:49:04.237Z,60.53
2022-12-03T20:51:32.296Z,59.67
2022-12-03T20:54:01.017Z,60.03
2022-12-03T20:56:35.060Z,60.15
2022-12-03T20:59:13.833Z,58.83
2022-12-03T21:01:42.012Z,57.97
2022-12-03T21:04:10.881Z,54.90
2022-12-03T21:06:38.561Z,54.85
2022-12-03T21:09:07.246Z,59.33
2022-12-03T21:11:35.998Z,55.85
2022-12-03T21:14:04.156Z,60.08
2022-12-03T21:17:05.920Z,59.88
2022-12-03T21:19:22.757Z,57.33
2022-12-03T21:21:50.435Z,58.28
2022-12-03T21:24:18.006Z,62.58
2022-12-03T21:26:45.583Z,59.00
2022-12-03T21:29:13.169Z,61.88
2022-12-03T21:31:40.875Z,60.28
2022-12-03T21:34:08.877Z,67.28
2022-12-03T21:36:36.485Z,56.38
2022-12-03T21:39:05.271Z,61.42
2022-12-03T21:41:34.920Z,58.83
2022-12-03T21:44:02.840Z,52.78
2022-12-03T21:47:11.391Z,59.30
2022-12-03T21:49:19.486Z,56.13
2022-12-03T21:51:47.310Z,57.80
2022-12-03T21:54:15.407Z,56.47
2022-12-03T21:56:43.007Z,57.25
2022-12-03T21:59:10.597Z,52.10
2022-12-03T22:01:40.634Z,59.05
2022-12-03T22:04:11.636Z,54.88
2022-12-03T22:06:39.537Z,51.97
2022-12-03T22:09:08.639Z,54.42
2022-12-03T22:11:36.279Z,58.58
2022-12-03T22:14:04.765Z,56.75
2022-12-03T22:16:32.586Z,57.90
2022-12-03T22:19:00.287Z,57.70
2022-12-03T22:21:27.924Z,55.55
2022-12-03T22:23:56.550Z,57.75
2022-12-03T22:26:24.181Z,56.22
2022-12-03T22:28:51.861Z,58.90
2022-12-03T22:31:19.874Z,58.95
2022-12-03T22:33:49.611Z,56.45
2022-12-03T22:36:21.458Z,57.85
2022-12-03T22:38:50.438Z,57.78
2022-12-03T22:41:19.280Z,56.53
2022-12-03T22:43:47.570Z,62.58
2022-12-03T22:46:15.630Z,54.40
2022-12-03T22:48:45.449Z,57.33
2022-12-03T22:51:21.809Z,56.38
2022-12-03T22:56:22.361Z,55.70
2022-12-03T22:58:50.042Z,52.92
2022-12-03T23:01:28.079Z,49.50
2022-12-03T23:03:56.005Z,52.97
2022-12-03T23:06:24.270Z,55.47
2022-12-03T23:08:52.022Z,53.30
2022-12-03T23:11:20.269Z,54.42
2022-12-03T23:13:47.855Z,57.33
2022-12-03T23:16:22.758Z,58.15
2022-12-03T23:18:50.540Z,54.63
2022-12-03T23:21:24.036Z,56.42
2022-12-03T23:23:56.406Z,54.15
2022-12-03T23:26:24.035Z,48.05
2022-12-03T23:28:51.620Z,57.60
2022-12-03T23:31:27.790Z,53.58
2022-12-03T23:33:56.828Z,52.97
2022-12-03T23:36:25.943Z,49.00
2022-12-03T23:38:53.886Z,52.75
2022-12-03T23:41:23.138Z,54.67
2022-12-03T23:43:51.110Z,50.10
2022-12-03T23:46:24.902Z,53.00
2022-12-03T23:48:52.858Z,54.10
2022-12-03T23:51:23.985Z,44.45
2022-12-03T23:53:53.208Z,46.83
2022-12-03T23:56:27.291Z,55.72
2022-12-03T23:58:54.901Z,47.15
